Time;durP1;ratioP1;P1;durP2;ratioP2;P2;SDS_P1;SDS_P2;PMS_P1;PMS_P2;Temp;Humidity;BMP_temperature;BMP_pressure;BME280_temperature;BME280_humidity;BME280_pressure;Samples;Min_cycle;Max_cycle;Signal;HPM_P1;HPM_P2
2021/10/17 00:01:18;;;;;;;28.05;14.68;;;;;;;;;;6245721;22;20079;-72
2021/10/17 00:03:44;;;;;;;30.85;15.20;;;;;;;;;;6245862;22;20012;-72
2021/10/17 00:06:09;;;;;;;26.60;15.07;;;;;;;;;;6246090;22;20397;-72
2021/10/17 00:08:35;;;;;;;26.92;14.75;;;;;;;;;;6247129;23;20004;-71
2021/10/17 00:11:00;;;;;;;26.88;14.70;;;;;;;;;;6248172;23;20287;-71
2021/10/17 00:13:26;;;;;;;27.23;15.07;;;;;;;;;;6247897;22;20019;-71
2021/10/17 00:15:52;;;;;;;36.42;17.45;;;;;;;;;;6247608;22;20447;-71
2021/10/17 00:18:19;;;;;;;28.65;15.68;;;;;;;;;;6246008;23;20008;-72
2021/10/17 00:20:44;;;;;;;28.85;15.00;;;;;;;;;;6247793;22;20019;-72
2021/10/17 00:23:10;;;;;;;30.58;16.27;;;;;;;;;;6247477;22;20004;-72
2021/10/17 00:25:36;;;;;;;28.58;15.65;;;;;;;;;;6247349;22;20003;-71
2021/10/17 00:28:03;;;;;;;32.40;16.27;;;;;;;;;;6247431;23;20333;-71
2021/10/17 00:30:35;;;;;;;30.73;15.45;;;;;;;;;;6222325;23;20058;-71
2021/10/17 00:33:01;;;;;;;28.38;14.93;;;;;;;;;;6246090;23;20008;-71
2021/10/17 00:35:26;;;;;;;30.05;16.15;;;;;;;;;;6246022;23;20380;-70
2021/10/17 00:37:52;;;;;;;29.58;16.30;;;;;;;;;;6247374;22;20384;-70
2021/10/17 00:40:18;;;;;;;33.45;16.88;;;;;;;;;;6245886;23;20087;-70
2021/10/17 00:42:45;;;;;;;37.33;18.98;;;;;;;;;;6247310;23;20455;-70
2021/10/17 00:45:12;;;;;;;32.15;17.08;;;;;;;;;;6247501;22;20320;-71
2021/10/17 00:47:37;;;;;;;27.50;15.45;;;;;;;;;;6247345;22;20191;-70
2021/10/17 00:50:03;;;;;;;30.40;16.00;;;;;;;;;;6247441;22;20080;-72
2021/10/17 00:52:29;;;;;;;31.40;16.05;;;;;;;;;;6247179;23;20083;-72
2021/10/17 00:54:54;;;;;;;27.00;15.07;;;;;;;;;;6245119;23;20032;-72
2021/10/17 00:57:20;;;;;;;30.77;15.88;;;;;;;;;;6247451;22;20004;-72
2021/10/17 00:59:45;;;;;;;26.38;15.27;;;;;;;;;;6245642;23;20019;-72
2021/10/17 01:02:11;;;;;;;27.52;16.02;;;;;;;;;;6246887;22;20000;-71
2021/10/17 01:04:39;;;;;;;31.67;17.23;;;;;;;;;;6247256;22;20015;-72
2021/10/17 01:07:04;;;;;;;29.92;15.95;;;;;;;;;;6245419;23;20031;-72
2021/10/17 01:09:30;;;;;;;30.25;15.73;;;;;;;;;;6247112;22;20482;-72
2021/10/17 01:11:56;;;;;;;31.00;16.17;;;;;;;;;;6245450;23;20096;-72
2021/10/17 01:14:25;;;;;;;31.75;15.98;;;;;;;;;;6221000;23;20430;-72
2021/10/17 01:16:52;;;;;;;31.70;16.58;;;;;;;;;;6245588;23;20087;-72
2021/10/17 01:19:18;;;;;;;30.65;16.55;;;;;;;;;;6245650;23;20451;-72
2021/10/17 01:21:45;;;;;;;31.52;15.57;;;;;;;;;;6245597;23;20008;-72
2021/10/17 01:24:11;;;;;;;31.90;17.55;;;;;;;;;;6245679;23;20075;-72
2021/10/17 01:26:37;;;;;;;34.88;18.35;;;;;;;;;;6245331;23;20043;-71
2021/10/17 01:29:03;;;;;;;34.65;18.08;;;;;;;;;;6245375;23;19996;-71
2021/10/17 01:31:33;;;;;;;29.48;15.32;;;;;;;;;;6245693;23;20012;-71
2021/10/17 01:33:59;;;;;;;33.45;15.65;;;;;;;;;;6245745;23;20011;-72
2021/10/17 01:36:25;;;;;;;29.33;15.27;;;;;;;;;;6245732;23;20008;-71
2021/10/17 01:38:51;;;;;;;29.25;16.65;;;;;;;;;;6245253;23;20413;-71
2021/10/17 01:41:16;;;;;;;33.63;16.77;;;;;;;;;;6246778;22;20004;-71
2021/10/17 01:43:42;;;;;;;30.20;17.52;;;;;;;;;;6245294;23;20087;-71
2021/10/17 01:46:10;;;;;;;31.67;17.70;;;;;;;;;;6245203;23;20012;-72
2021/10/17 01:48:39;;;;;;;32.65;16.88;;;;;;;;;;6245028;23;20062;-71
2021/10/17 01:51:04;;;;;;;30.38;17.20;;;;;;;;;;6245163;23;20008;-72
2021/10/17 01:53:30;;;;;;;37.38;18.50;;;;;;;;;;6246593;23;20004;-72
2021/10/17 01:55:57;;;;;;;36.38;18.45;;;;;;;;;;6244254;23;20023;-72
2021/10/17 01:58:25;;;;;;;33.35;18.10;;;;;;;;;;6245091;23;20012;-72
2021/10/17 02:00:51;;;;;;;32.65;18.10;;;;;;;;;;6245035;23;20332;-72
2021/10/17 02:03:17;;;;;;;33.58;17.48;;;;;;;;;;6245294;23;20389;-71
2021/10/17 02:05:46;;;;;;;31.63;17.10;;;;;;;;;;6245162;23;20050;-71
2021/10/17 02:08:11;;;;;;;27.98;16.77;;;;;;;;;;6245070;23;20405;-71
2021/10/17 02:10:38;;;;;;;31.65;17.25;;;;;;;;;;6245183;23;20053;-71
2021/10/17 02:13:08;;;;;;;33.10;17.13;;;;;;;;;;6245086;23;20007;-71
2021/10/17 02:15:34;;;;;;;30.45;16.90;;;;;;;;;;6245086;23;20496;-71
2021/10/17 02:17:59;;;;;;;31.30;17.70;;;;;;;;;;6244660;23;20004;-71
2021/10/17 02:20:32;;;;;;;29.02;15.63;;;;;;;;;;6244755;23;20090;-71
2021/10/17 02:23:00;;;;;;;31.23;16.65;;;;;;;;;;6244597;23;20058;-71
2021/10/17 02:25:27;;;;;;;30.83;15.90;;;;;;;;;;6244816;23;19999;-70
2021/10/17 02:27:53;;;;;;;26.60;14.82;;;;;;;;;;6244672;23;20000;-71
2021/10/17 02:30:19;;;;;;;29.58;15.30;;;;;;;;;;6244552;23;20003;-71
2021/10/17 02:32:55;;;;;;;26.60;15.68;;;;;;;;;;6244930;23;20140;-71
2021/10/17 02:35:29;;;;;;;27.33;14.98;;;;;;;;;;6245098;23;20004;-70
2021/10/17 02:37:55;;;;;;;30.83;15.35;;;;;;;;;;6244624;23;20015;-70
2021/10/17 02:40:21;;;;;;;27.67;13.95;;;;;;;;;;6219517;23;20328;-70
2021/10/17 02:42:46;;;;;;;24.40;14.45;;;;;;;;;;6244611;23;20015;-70
2021/10/17 02:45:12;;;;;;;27.27;15.48;;;;;;;;;;6244696;23;19999;-70
2021/10/17 02:47:38;;;;;;;26.02;14.77;;;;;;;;;;6244548;23;20011;-71
2021/10/17 02:50:05;;;;;;;33.45;16.92;;;;;;;;;;6244053;23;19996;-72
2021/10/17 02:52:31;;;;;;;38.15;19.60;;;;;;;;;;6245037;23;20004;-72
2021/10/17 02:54:57;;;;;;;36.97;18.50;;;;;;;;;;6244375;23;20022;-71
2021/10/17 02:57:22;;;;;;;33.17;19.35;;;;;;;;;;6244886;23;20004;-73
2021/10/17 02:59:48;;;;;;;34.85;20.42;;;;;;;;;;6244540;23;20004;-73
2021/10/17 03:02:14;;;;;;;38.08;20.67;;;;;;;;;;6244662;23;20011;-72
2021/10/17 03:04:40;;;;;;;38.35;20.77;;;;;;;;;;6244787;23;20000;-73
2021/10/17 03:07:05;;;;;;;42.75;21.77;;;;;;;;;;6244644;23;20008;-73
2021/10/17 03:09:39;;;;;;;41.35;23.50;;;;;;;;;;6244894;23;20324;-73
2021/10/17 03:12:05;;;;;;;43.53;23.60;;;;;;;;;;6244563;23;20348;-72
2021/10/17 03:14:32;;;;;;;42.65;24.17;;;;;;;;;;6244775;23;20058;-73
2021/10/17 03:16:57;;;;;;;49.00;25.98;;;;;;;;;;6244663;23;20004;-72
2021/10/17 03:19:23;;;;;;;54.58;30.77;;;;;;;;;;6244665;23;20000;-72
2021/10/17 03:21:48;;;;;;;54.38;29.65;;;;;;;;;;6244605;23;20008;-72
2021/10/17 03:24:14;;;;;;;48.63;25.65;;;;;;;;;;6244370;23;20008;-72
2021/10/17 03:26:41;;;;;;;44.55;23.90;;;;;;;;;;6244470;23;20011;-72
2021/10/17 03:29:07;;;;;;;44.05;24.20;;;;;;;;;;6244555;23;20020;-72
2021/10/17 03:31:37;;;;;;;48.67;25.15;;;;;;;;;;6244310;23;20027;-72
2021/10/17 03:34:04;;;;;;;46.75;26.58;;;;;;;;;;6244440;23;20011;-72
2021/10/17 03:36:30;;;;;;;49.65;25.95;;;;;;;;;;6244538;23;20061;-72
2021/10/17 03:38:57;;;;;;;45.15;26.48;;;;;;;;;;6244490;23;19996;-72
2021/10/17 03:41:27;;;;;;;43.95;24.70;;;;;;;;;;6244880;23;20012;-72
2021/10/17 03:43:53;;;;;;;54.40;28.38;;;;;;;;;;6247787;23;20011;-72
2021/10/17 03:46:21;;;;;;;51.92;25.45;;;;;;;;;;6245509;23;20432;-72
2021/10/17 03:48:47;;;;;;;43.10;24.60;;;;;;;;;;6246283;23;20004;-73
2021/10/17 03:51:17;;;;;;;45.22;24.75;;;;;;;;;;6246269;23;20008;-72
2021/10/17 03:53:43;;;;;;;43.58;25.08;;;;;;;;;;6246412;23;20087;-72
2021/10/17 03:56:09;;;;;;;47.28;26.75;;;;;;;;;;6245644;23;20460;-72
2021/10/17 03:58:35;;;;;;;42.60;26.35;;;;;;;;;;6246418;23;20043;-72
2021/10/17 04:01:01;;;;;;;42.15;25.27;;;;;;;;;;6246460;23;20099;-73
2021/10/17 04:03:28;;;;;;;48.05;26.27;;;;;;;;;;6246059;23;20309;-72
2021/10/17 04:05:55;;;;;;;45.55;26.35;;;;;;;;;;6245999;23;20004;-73
2021/10/17 04:08:20;;;;;;;47.47;26.40;;;;;;;;;;6247635;22;19998;-72
2021/10/17 04:10:46;;;;;;;48.22;25.92;;;;;;;;;;6245939;23;20032;-72
2021/10/17 04:13:12;;;;;;;47.17;27.27;;;;;;;;;;6246096;23;20000;-72
2021/10/17 04:15:38;;;;;;;48.83;26.60;;;;;;;;;;6246112;23;20004;-72
2021/10/17 04:18:06;;;;;;;47.60;26.05;;;;;;;;;;6221397;23;20000;-73
2021/10/17 04:20:32;;;;;;;48.83;26.63;;;;;;;;;;6245923;23;20008;-73
2021/10/17 04:22:59;;;;;;;46.05;26.48;;;;;;;;;;6245650;23;20083;-72
2021/10/17 04:25:27;;;;;;;44.60;26.08;;;;;;;;;;6245913;23;20095;-73
2021/10/17 04:27:52;;;;;;;46.80;26.75;;;;;;;;;;6247473;23;20020;-73
2021/10/17 04:30:18;;;;;;;48.35;26.58;;;;;;;;;;6245695;23;20436;-73
2021/10/17 04:32:44;;;;;;;54.35;29.90;;;;;;;;;;6248055;23;19997;-72
2021/10/17 04:35:09;;;;;;;45.83;26.90;;;;;;;;;;6245800;23;20421;-72
2021/10/17 04:37:36;;;;;;;50.63;27.92;;;;;;;;;;6245974;23;20007;-72
2021/10/17 04:40:02;;;;;;;44.22;26.27;;;;;;;;;;6245966;23;20004;-72
2021/10/17 04:42:28;;;;;;;42.65;25.65;;;;;;;;;;6245635;23;20000;-72
2021/10/17 04:44:54;;;;;;;44.13;25.80;;;;;;;;;;6246316;23;20062;-72
2021/10/17 04:47:19;;;;;;;45.05;26.98;;;;;;;;;;6245670;23;20000;-73
2021/10/17 04:49:45;;;;;;;44.45;25.67;;;;;;;;;;6245598;23;20004;-73
2021/10/17 04:52:10;;;;;;;44.13;25.23;;;;;;;;;;6246974;22;19996;-72
2021/10/17 04:54:36;;;;;;;44.97;26.20;;;;;;;;;;6247324;23;20015;-72
2021/10/17 04:57:01;;;;;;;46.17;26.45;;;;;;;;;;6220216;23;20012;-73
2021/10/17 04:59:27;;;;;;;45.72;26.80;;;;;;;;;;6245287;23;20020;-73
2021/10/17 05:01:57;;;;;;;;;;;;;;;;;;6246385;23;20032;-72
2021/10/17 05:04:23;;;;;;;46.72;25.63;;;;;;;;;;6245210;23;19915;-72
2021/10/17 05:06:49;;;;;;;49.47;26.30;;;;;;;;;;6245894;23;19996;-73
2021/10/17 05:09:15;;;;;;;46.88;25.48;;;;;;;;;;6245673;23;20310;-73
2021/10/17 05:11:41;;;;;;;44.35;25.05;;;;;;;;;;6245644;23;20050;-72
2021/10/17 05:14:06;;;;;;;49.53;26.30;;;;;;;;;;6247029;23;20015;-73
2021/10/17 05:16:32;;;;;;;44.92;26.52;;;;;;;;;;6245669;23;20031;-72
2021/10/17 05:18:58;;;;;;;48.10;27.75;;;;;;;;;;6245433;23;20424;-72
2021/10/17 05:21:24;;;;;;;86.28;36.90;;;;;;;;;;6244315;23;20007;-73
2021/10/17 05:23:51;;;;;;;49.85;27.13;;;;;;;;;;6245126;23;20019;-72
2021/10/17 05:26:16;;;;;;;51.65;28.67;;;;;;;;;;6244886;23;20047;-73
2021/10/17 05:28:43;;;;;;;60.05;29.70;;;;;;;;;;6245234;23;20011;-72
2021/10/17 05:31:08;;;;;;;51.17;28.55;;;;;;;;;;6245233;23;20004;-72
2021/10/17 05:33:37;;;;;;;54.03;29.15;;;;;;;;;;6245091;23;20016;-72
2021/10/17 05:36:04;;;;;;;52.33;28.90;;;;;;;;;;6245162;23;20010;-72
2021/10/17 05:38:29;;;;;;;49.22;28.17;;;;;;;;;;6244949;23;20012;-73
2021/10/17 05:41:03;;;;;;;49.17;28.63;;;;;;;;;;6245312;23;20341;-72
2021/10/17 05:43:30;;;;;;;51.88;29.05;;;;;;;;;;6246757;23;20008;-72
2021/10/17 05:45:55;;;;;;;53.90;30.10;;;;;;;;;;6219726;23;20500;-61
2021/10/17 05:48:21;;;;;;;54.38;29.60;;;;;;;;;;6245299;23;20092;-61
2021/10/17 05:50:46;;;;;;;53.33;29.83;;;;;;;;;;6245266;23;20015;-61
2021/10/17 05:53:13;;;;;;;52.83;30.85;;;;;;;;;;6245390;23;20027;-72
2021/10/17 05:55:39;;;;;;;50.70;30.10;;;;;;;;;;6244432;23;20322;-72
2021/10/17 05:58:05;;;;;;;55.45;31.02;;;;;;;;;;6245074;23;20012;-72
2021/10/17 06:00:30;;;;;;;54.75;29.52;;;;;;;;;;6245263;23;20008;-72
2021/10/17 06:03:00;;;;;;;46.78;27.08;;;;;;;;;;6245019;23;20008;-73
2021/10/17 06:05:32;;;;;;;53.78;30.63;;;;;;;;;;6244585;23;20008;-72
2021/10/17 06:07:59;;;;;;;52.00;30.17;;;;;;;;;;6244320;23;20444;-72
2021/10/17 06:10:26;;;;;;;54.63;28.17;;;;;;;;;;6244368;23;20390;-73
2021/10/17 06:12:52;;;;;;;47.85;29.15;;;;;;;;;;6244190;23;20428;-70
2021/10/17 06:15:17;;;;;;;45.83;28.52;;;;;;;;;;6244537;23;19992;-69
2021/10/17 06:17:43;;;;;;;49.20;30.13;;;;;;;;;;6244316;23;20056;-70
2021/10/17 06:20:09;;;;;;;53.67;31.17;;;;;;;;;;6244564;23;20424;-71
2021/10/17 06:22:39;;;;;;;49.72;29.67;;;;;;;;;;6244511;23;20008;-72
2021/10/17 06:25:05;;;;;;;48.38;28.63;;;;;;;;;;6244286;23;20015;-72
2021/10/17 06:27:31;;;;;;;49.50;28.88;;;;;;;;;;6244768;23;20417;-69
2021/10/17 06:29:57;;;;;;;47.83;27.17;;;;;;;;;;6244740;23;20001;-65
2021/10/17 06:32:23;;;;;;;54.15;28.70;;;;;;;;;;6244052;23;20023;-65
2021/10/17 06:34:49;;;;;;;49.65;27.58;;;;;;;;;;6244768;23;20038;-64
2021/10/17 06:37:15;;;;;;;48.63;27.92;;;;;;;;;;6244495;23;20246;-64
2021/10/17 06:39:41;;;;;;;42.40;26.15;;;;;;;;;;6245298;22;20036;-65
2021/10/17 06:42:13;;;;;;;41.83;25.48;;;;;;;;;;6244705;23;20079;-64
2021/10/17 06:44:52;;;;;;;44.78;25.95;;;;;;;;;;6244333;23;20018;-64
2021/10/17 06:47:18;;;;;;;44.60;26.17;;;;;;;;;;6243992;23;20079;-64
2021/10/17 06:49:44;;;;;;;40.08;25.48;;;;;;;;;;6244475;23;19996;-64
2021/10/17 06:52:10;;;;;;;44.03;24.85;;;;;;;;;;6244727;23;20000;-64
2021/10/17 06:54:35;;;;;;;46.25;26.00;;;;;;;;;;6244657;23;20087;-64
2021/10/17 06:57:01;;;;;;;45.47;26.05;;;;;;;;;;6244237;23;20020;-64
2021/10/17 06:59:27;;;;;;;42.00;24.20;;;;;;;;;;6244722;23;20012;-64
2021/10/17 07:01:53;;;;;;;45.25;24.80;;;;;;;;;;6246359;22;20043;-64
2021/10/17 07:04:20;;;;;;;40.08;24.83;;;;;;;;;;6244712;23;20023;-64
2021/10/17 07:06:46;;;;;;;42.80;23.73;;;;;;;;;;6244643;23;20425;-64
2021/10/17 07:09:14;;;;;;;37.50;22.73;;;;;;;;;;6244481;23;20091;-64
2021/10/17 07:11:52;;;;;;;33.95;22.23;;;;;;;;;;6244576;23;20075;-64
2021/10/17 07:14:23;;;;;;;42.60;23.95;;;;;;;;;;6244494;23;20008;-65
2021/10/17 07:17:09;;;;;;;40.25;22.40;;;;;;;;;;6247329;23;20012;-65
2021/10/17 07:19:34;;;;;;;40.90;22.67;;;;;;;;;;6246614;23;20428;-65
2021/10/17 07:22:01;;;;;;;39.13;22.50;;;;;;;;;;6246222;23;19997;-60
2021/10/17 07:24:31;;;;;;;40.70;23.33;;;;;;;;;;6246392;23;20012;-60
2021/10/17 07:26:59;;;;;;;45.53;23.55;;;;;;;;;;6245926;23;20001;-62
2021/10/17 07:29:24;;;;;;;94.82;25.10;;;;;;;;;;6246343;23;20000;-62
2021/10/17 07:31:50;;;;;;;39.25;21.40;;;;;;;;;;6246364;23;20015;-62
2021/10/17 07:34:16;;;;;;;38.90;22.73;;;;;;;;;;6247938;23;20058;-62
2021/10/17 07:36:41;;;;;;;37.00;21.67;;;;;;;;;;6246313;23;20008;-62
2021/10/17 07:39:20;;;;;;;42.70;23.88;;;;;;;;;;6223604;23;20000;-61
2021/10/17 07:41:49;;;;;;;36.55;21.67;;;;;;;;;;6246356;23;20046;-61
2021/10/17 07:44:16;;;;;;;36.50;21.55;;;;;;;;;;6247811;22;20022;-61
2021/10/17 07:46:55;;;;;;;70.35;20.95;;;;;;;;;;6246369;23;20012;-62
2021/10/17 07:49:23;;;;;;;34.58;20.77;;;;;;;;;;6246153;23;20003;-62
2021/10/17 07:51:49;;;;;;;31.50;19.73;;;;;;;;;;6246535;23;20365;-62
2021/10/17 07:54:15;;;;;;;37.35;21.25;;;;;;;;;;6246094;23;20012;-62
2021/10/17 07:56:43;;;;;;;33.45;20.63;;;;;;;;;;6245865;23;20019;-62
2021/10/17 07:59:09;;;;;;;32.08;18.65;;;;;;;;;;6246463;23;20012;-62
2021/10/17 08:01:34;;;;;;;31.75;19.30;;;;;;;;;;6245738;23;20123;-61
2021/10/17 08:04:09;;;;;;;33.88;19.27;;;;;;;;;;6247996;23;20019;-60
2021/10/17 08:06:47;;;;;;;32.42;19.15;;;;;;;;;;6246133;23;20004;-60
2021/10/17 08:09:13;;;;;;;33.45;19.17;;;;;;;;;;6247547;22;20000;-60
2021/10/17 08:11:38;;;;;;;33.13;19.42;;;;;;;;;;6245676;23;19996;-60
2021/10/17 08:14:05;;;;;;;31.05;18.05;;;;;;;;;;6244582;23;20014;-60
2021/10/17 08:16:38;;;;;;;32.90;18.45;;;;;;;;;;6244738;23;20075;-60
2021/10/17 08:19:04;;;;;;;29.85;18.35;;;;;;;;;;6245543;23;20035;-60
2021/10/17 08:21:33;;;;;;;29.20;15.98;;;;;;;;;;6245582;23;19996;-60
2021/10/17 08:24:07;;;;;;;27.17;15.60;;;;;;;;;;6245175;23;20112;-60
2021/10/17 08:26:39;;;;;;;29.90;16.52;;;;;;;;;;6244987;23;20089;-60
2021/10/17 08:29:07;;;;;;;30.15;17.25;;;;;;;;;;6245202;23;20443;-60
2021/10/17 08:31:33;;;;;;;27.35;15.38;;;;;;;;;;6245768;23;20007;-60
2021/10/17 08:34:04;;;;;;;31.98;17.90;;;;;;;;;;6245763;23;20004;-60
2021/10/17 08:36:32;;;;;;;28.17;15.82;;;;;;;;;;6247343;22;20008;-61
2021/10/17 08:38:59;;;;;;;25.27;15.40;;;;;;;;;;6220789;23;20371;-60
2021/10/17 08:41:34;;;;;;;24.02;14.35;;;;;;;;;;6245728;23;20348;-60
2021/10/17 08:44:11;;;;;;;26.00;14.32;;;;;;;;;;6245733;23;20061;-60
2021/10/17 08:46:46;;;;;;;27.35;15.88;;;;;;;;;;6245694;23;20019;-60
2021/10/17 08:49:13;;;;;;;25.67;15.80;;;;;;;;;;6245568;23;20504;-60
2021/10/17 08:51:39;;;;;;;26.50;14.88;;;;;;;;;;6245508;23;19996;-60
2021/10/17 08:54:07;;;;;;;22.48;12.65;;;;;;;;;;6245473;23;20436;-60
2021/10/17 08:56:42;;;;;;;21.08;12.85;;;;;;;;;;6245328;23;20399;-60
2021/10/17 08:59:10;;;;;;;23.52;13.20;;;;;;;;;;6245392;23;20036;-60
2021/10/17 09:01:44;;;;;;;22.60;13.00;;;;;;;;;;6245292;23;20011;-60
2021/10/17 09:04:14;;;;;;;20.90;13.45;;;;;;;;;;6245402;23;20008;-61
2021/10/17 09:07:14;;;;;;;25.75;13.48;;;;;;;;;;6247035;23;20061;-60
2021/10/17 09:10:04;;;;;;;22.60;13.00;;;;;;;;;;6245498;23;20062;-60
2021/10/17 09:12:29;;;;;;;28.40;13.43;;;;;;;;;;6245448;23;20023;-60
2021/10/17 09:15:15;;;;;;;23.50;12.38;;;;;;;;;;6245328;23;20004;-60
2021/10/17 09:18:01;;;;;;;26.00;13.00;;;;;;;;;;6246728;22;20015;-61
2021/10/17 09:20:26;;;;;;;21.55;12.70;;;;;;;;;;6245301;23;20031;-60
2021/10/17 09:22:51;;;;;;;22.02;12.70;;;;;;;;;;6246634;23;20006;-60
2021/10/17 09:25:28;;;;;;;18.75;11.90;;;;;;;;;;6246756;22;20008;-60
2021/10/17 09:27:53;;;;;;;22.23;12.07;;;;;;;;;;6245164;23;20011;-60
2021/10/17 09:30:19;;;;;;;22.70;12.10;;;;;;;;;;6245086;23;19993;-60
2021/10/17 09:32:44;;;;;;;20.13;11.20;;;;;;;;;;6245347;23;20005;-60
2021/10/17 09:35:09;;;;;;;20.52;11.60;;;;;;;;;;6246727;23;20000;-60
2021/10/17 09:38:01;;;;;;;29.60;14.88;;;;;;;;;;6245263;23;20012;-60
2021/10/17 09:40:48;;;;;;;20.13;11.05;;;;;;;;;;6245083;23;20432;-60
2021/10/17 09:43:24;;;;;;;17.45;10.65;;;;;;;;;;6244876;23;20031;-60
2021/10/17 09:46:12;;;;;;;17.75;10.80;;;;;;;;;;6244974;23;20058;-60
2021/10/17 09:48:38;;;;;;;19.45;11.38;;;;;;;;;;6246441;23;20005;-60
2021/10/17 09:51:04;;;;;;;18.30;10.77;;;;;;;;;;6246552;22;20053;-60
2021/10/17 09:53:42;;;;;;;16.85;10.35;;;;;;;;;;6246343;23;20008;-60
2021/10/17 09:56:08;;;;;;;18.33;10.60;;;;;;;;;;6245636;22;20015;-60
2021/10/17 09:58:34;;;;;;;13.52;9.45;;;;;;;;;;6246446;23;20004;-60
2021/10/17 10:00:59;;;;;;;14.75;9.75;;;;;;;;;;6246352;22;20122;-60
2021/10/17 10:03:26;;;;;;;17.02;9.02;;;;;;;;;;6246333;22;20066;-60
2021/10/17 10:05:52;;;;;;;15.77;9.15;;;;;;;;;;6246514;22;19996;-60
2021/10/17 10:08:21;;;;;;;13.13;8.80;;;;;;;;;;6246238;23;20535;-60
2021/10/17 10:10:50;;;;;;;14.23;8.95;;;;;;;;;;6246457;22;20007;-60
2021/10/17 10:13:17;;;;;;;12.90;8.38;;;;;;;;;;6246313;22;20023;-60
2021/10/17 10:15:43;;;;;;;16.08;8.88;;;;;;;;;;6246403;23;20035;-60
2021/10/17 10:18:10;;;;;;;12.63;8.25;;;;;;;;;;6246206;22;20431;-60
2021/10/17 10:20:36;;;;;;;13.35;8.48;;;;;;;;;;6246041;23;20031;-61
2021/10/17 10:23:02;;;;;;;14.15;8.25;;;;;;;;;;6246225;22;20054;-60
2021/10/17 10:25:28;;;;;;;12.25;8.30;;;;;;;;;;6246197;23;20004;-60
2021/10/17 10:27:54;;;;;;;15.38;8.20;;;;;;;;;;6244638;23;20079;-60
2021/10/17 10:30:27;;;;;;;11.55;7.63;;;;;;;;;;6245997;22;20004;-60
2021/10/17 10:33:05;;;;;;;10.82;7.07;;;;;;;;;;6246326;23;20429;-60
2021/10/17 10:35:31;;;;;;;11.40;7.10;;;;;;;;;;6244849;23;20011;-60
2021/10/17 10:37:56;;;;;;;12.90;7.93;;;;;;;;;;6246178;22;19996;-60
2021/10/17 10:40:22;;;;;;;12.35;7.63;;;;;;;;;;6246143;23;20035;-60
2021/10/17 10:42:49;;;;;;;12.07;7.53;;;;;;;;;;6246039;22;20293;-60
2021/10/17 10:45:18;;;;;;;12.70;7.45;;;;;;;;;;6246185;22;20000;-60
2021/10/17 10:47:44;;;;;;;11.93;7.55;;;;;;;;;;6246174;22;20019;-61
2021/10/17 10:50:11;;;;;;;11.02;6.65;;;;;;;;;;6245772;23;20447;-60
2021/10/17 10:52:37;;;;;;;10.60;6.85;;;;;;;;;;6244572;23;20027;-60
2021/10/17 10:55:06;;;;;;;11.63;7.32;;;;;;;;;;6245618;22;20008;-60
2021/10/17 10:57:40;;;;;;;12.55;7.00;;;;;;;;;;6246156;22;20008;-60
2021/10/17 11:00:11;;;;;;;10.50;6.65;;;;;;;;;;6245979;22;20009;-60
2021/10/17 11:02:38;;;;;;;10.05;6.50;;;;;;;;;;6245843;23;20011;-60
2021/10/17 11:05:04;;;;;;;12.80;6.63;;;;;;;;;;6245236;22;19997;-60
2021/10/17 11:07:50;;;;;;;11.80;7.15;;;;;;;;;;6245932;23;20012;-60
2021/10/17 11:10:21;;;;;;;10.07;6.05;;;;;;;;;;6245896;22;20008;-60
2021/10/17 11:12:47;;;;;;;8.52;5.90;;;;;;;;;;6245976;23;20007;-60
2021/10/17 11:15:13;;;;;;;11.65;6.60;;;;;;;;;;6245935;22;19996;-60
2021/10/17 11:17:50;;;;;;;9.13;6.60;;;;;;;;;;6244321;23;20062;-60
2021/10/17 11:20:20;;;;;;;10.88;5.95;;;;;;;;;;6245924;22;20004;-60
2021/10/17 11:22:46;;;;;;;10.80;6.07;;;;;;;;;;6245803;22;19992;-60
2021/10/17 11:25:14;;;;;;;10.85;6.68;;;;;;;;;;6244405;23;20008;-60
2021/10/17 11:27:39;;;;;;;8.30;5.70;;;;;;;;;;6245768;22;20439;-60
2021/10/17 11:30:05;;;;;;;10.57;6.60;;;;;;;;;;6245669;23;20087;-60
2021/10/17 11:32:34;;;;;;;8.65;5.95;;;;;;;;;;6246045;22;20019;-60
2021/10/17 11:35:01;;;;;;;10.02;6.07;;;;;;;;;;6245825;22;20087;-61
2021/10/17 11:37:28;;;;;;;8.93;5.93;;;;;;;;;;6245795;23;20421;-60
2021/10/17 11:40:00;;;;;;;8.77;5.55;;;;;;;;;;6245628;23;20087;-60
2021/10/17 11:42:27;;;;;;;9.63;5.38;;;;;;;;;;6245667;23;20405;-60
2021/10/17 11:44:55;;;;;;;8.50;5.50;;;;;;;;;;6245628;22;20000;-60
2021/10/17 11:47:21;;;;;;;7.47;5.40;;;;;;;;;;6245701;23;20004;-60
2021/10/17 11:49:49;;;;;;;12.77;7.40;;;;;;;;;;6245819;22;20000;-60
2021/10/17 11:52:16;;;;;;;9.48;5.88;;;;;;;;;;6245686;23;20000;-60
2021/10/17 11:54:48;;;;;;;6.72;5.03;;;;;;;;;;6245773;22;20006;-60
2021/10/17 11:57:30;;;;;;;9.55;5.35;;;;;;;;;;6245523;23;20016;-61
2021/10/17 11:59:59;;;;;;;9.00;5.50;;;;;;;;;;6245978;22;20008;-60
2021/10/17 12:02:32;;;;;;;6.30;4.93;;;;;;;;;;6245954;22;20079;-60
2021/10/17 12:04:58;;;;;;;6.00;4.38;;;;;;;;;;6247437;22;20008;-60
2021/10/17 12:07:24;;;;;;;6.25;4.13;;;;;;;;;;6247461;22;19992;-60
2021/10/17 12:09:50;;;;;;;6.28;4.78;;;;;;;;;;6245886;23;20004;-60
2021/10/17 12:12:20;;;;;;;7.40;4.78;;;;;;;;;;6247631;23;20420;-60
2021/10/17 12:14:58;;;;;;;5.07;4.00;;;;;;;;;;6247729;22;20458;-60
2021/10/17 12:17:24;;;;;;;5.95;4.75;;;;;;;;;;6247561;23;20004;-60
2021/10/17 12:20:03;;;;;;;4.20;3.80;;;;;;;;;;6247227;22;20006;-60
2021/10/17 12:22:29;;;;;;;5.22;4.10;;;;;;;;;;6247333;22;20039;-60
2021/10/17 12:24:56;;;;;;;5.47;4.22;;;;;;;;;;6245699;23;20000;-60
2021/10/17 12:27:32;;;;;;;6.43;4.13;;;;;;;;;;6247419;22;20008;-60
2021/10/17 12:30:03;;;;;;;6.07;4.57;;;;;;;;;;6246054;23;20000;-60
2021/10/17 12:32:40;;;;;;;5.13;4.00;;;;;;;;;;6247367;23;20000;-60
2021/10/17 12:35:14;;;;;;;4.25;3.78;;;;;;;;;;6247284;23;20082;-60
2021/10/17 12:37:39;;;;;;;6.43;4.13;;;;;;;;;;6247486;22;20004;-60
2021/10/17 12:40:05;;;;;;;7.68;4.32;;;;;;;;;;6247221;23;20007;-60
2021/10/17 12:42:42;;;;;;;6.72;4.10;;;;;;;;;;6247271;23;20008;-60
2021/10/17 12:45:12;;;;;;;6.03;4.50;;;;;;;;;;6247391;22;20015;-60
2021/10/17 12:47:42;;;;;;;7.53;4.80;;;;;;;;;;6247370;22;20007;-60
2021/10/17 12:50:14;;;;;;;5.97;4.68;;;;;;;;;;6245847;23;20004;-60
2021/10/17 12:52:40;;;;;;;8.00;4.35;;;;;;;;;;6246605;23;20028;-60
2021/10/17 12:55:05;;;;;;;7.10;4.57;;;;;;;;;;6245268;22;20004;-60
2021/10/17 12:57:31;;;;;;;8.93;4.65;;;;;;;;;;6247109;23;20012;-60
2021/10/17 12:59:58;;;;;;;5.53;3.85;;;;;;;;;;6246920;23;20039;-60
2021/10/17 13:02:33;;;;;;;6.03;4.28;;;;;;;;;;6245223;23;20391;-60
2021/10/17 13:04:59;;;;;;;6.55;4.50;;;;;;;;;;6246808;23;20004;-59
2021/10/17 13:07:34;;;;;;;6.90;4.32;;;;;;;;;;6247559;22;19999;-59
2021/10/17 13:10:06;;;;;;;8.07;4.13;;;;;;;;;;6247365;22;20027;-59
2021/10/17 13:12:52;;;;;;;6.28;4.22;;;;;;;;;;6246578;23;20008;-59
2021/10/17 13:15:27;;;;;;;5.75;4.40;;;;;;;;;;6244951;23;20008;-59
2021/10/17 13:17:54;;;;;;;5.13;3.92;;;;;;;;;;6246830;23;20444;-59
2021/10/17 13:20:21;;;;;;;5.55;4.20;;;;;;;;;;6246767;22;20007;-59
2021/10/17 13:22:47;;;;;;;5.07;4.03;;;;;;;;;;6246829;23;20087;-59
2021/10/17 13:25:17;;;;;;;8.82;5.55;;;;;;;;;;6246765;22;20114;-59
2021/10/17 13:27:43;;;;;;;7.57;5.28;;;;;;;;;;6246857;22;20004;-59
2021/10/17 13:30:09;;;;;;;5.80;4.65;;;;;;;;;;6245390;23;20421;-59
2021/10/17 13:32:35;;;;;;;8.02;4.95;;;;;;;;;;6246716;23;20503;-59
2021/10/17 13:35:02;;;;;;;11.10;5.18;;;;;;;;;;6246966;22;20030;-59
2021/10/17 13:37:28;;;;;;;7.60;4.72;;;;;;;;;;6246620;23;20090;-59
2021/10/17 13:39:54;;;;;;;7.13;4.78;;;;;;;;;;6245165;23;20494;-59
2021/10/17 13:42:20;;;;;;;6.22;4.90;;;;;;;;;;6246764;22;20015;-59
2021/10/17 13:44:45;;;;;;;7.32;5.20;;;;;;;;;;6246527;22;20020;-59
2021/10/17 13:47:11;;;;;;;7.63;4.95;;;;;;;;;;6244458;23;20083;-59
2021/10/17 13:49:36;;;;;;;8.75;5.25;;;;;;;;;;6244706;23;20001;-59
2021/10/17 13:52:04;;;;;;;7.97;5.05;;;;;;;;;;6246167;23;20000;-59
2021/10/17 13:54:29;;;;;;;6.85;4.93;;;;;;;;;;6246327;22;20057;-59
2021/10/17 13:56:55;;;;;;;9.32;4.95;;;;;;;;;;6246027;23;20059;-59
2021/10/17 13:59:24;;;;;;;9.13;5.05;;;;;;;;;;6246912;22;20066;-59
2021/10/17 14:01:50;;;;;;;8.25;4.57;;;;;;;;;;6246328;23;20440;-59
2021/10/17 14:04:15;;;;;;;6.53;4.55;;;;;;;;;;6244882;23;20022;-59
2021/10/17 14:06:41;;;;;;;8.73;5.25;;;;;;;;;;6246469;23;20438;-59
2021/10/17 14:09:07;;;;;;;10.07;5.18;;;;;;;;;;6246527;22;20042;-59
2021/10/17 14:11:33;;;;;;;10.45;5.55;;;;;;;;;;6246437;23;20086;-59
2021/10/17 14:13:58;;;;;;;8.85;5.63;;;;;;;;;;6246358;22;20401;-59
2021/10/17 14:16:24;;;;;;;9.45;5.57;;;;;;;;;;6246593;22;20282;-59
2021/10/17 14:18:49;;;;;;;8.57;6.15;;;;;;;;;;6246234;22;20000;-59
2021/10/17 14:21:15;;;;;;;9.38;5.70;;;;;;;;;;6246327;23;20083;-59
2021/10/17 14:23:40;;;;;;;10.73;5.80;;;;;;;;;;6246318;22;20007;-59
2021/10/17 14:26:06;;;;;;;10.43;6.05;;;;;;;;;;6245947;23;20011;-59
2021/10/17 14:28:31;;;;;;;9.73;5.68;;;;;;;;;;6246546;22;19992;-59